createdAt,value
2018-03-23T00:01:48.234Z,4.30
2018-03-23T00:04:14.567Z,4.30
2018-03-23T00:06:40.778Z,4.30
2018-03-23T00:09:07.071Z,4.30
2018-03-23T00:11:34.051Z,4.20
2018-03-23T00:14:00.335Z,4.20
2018-03-23T00:16:27.382Z,4.20
2018-03-23T00:18:54.351Z,4.20
2018-03-23T00:21:21.409Z,4.20
2018-03-23T00:23:48.447Z,4.20
2018-03-23T00:26:14.728Z,4.20
2018-03-23T00:28:41.036Z,4.20
2018-03-23T00:31:07.431Z,4.20
2018-03-23T00:33:34.531Z,4.20
2018-03-23T00:36:00.786Z,4.20
2018-03-23T00:38:27.800Z,4.20
2018-03-23T00:40:54.780Z,4.20
2018-03-23T00:43:21.024Z,4.20
2018-03-23T00:45:47.251Z,4.20
2018-03-23T00:48:14.332Z,4.20
2018-03-23T00:50:40.553Z,4.20
2018-03-23T00:53:07.299Z,4.20
2018-03-23T00:55:33.527Z,4.20
2018-03-23T00:57:59.846Z,4.20
2018-03-23T01:00:26.105Z,4.20
2018-03-23T01:02:52.511Z,4.10
2018-03-23T01:05:18.820Z,4.10
2018-03-23T01:07:45.316Z,4.10
2018-03-23T01:10:11.545Z,4.10
2018-03-23T01:12:37.763Z,4.10
2018-03-23T01:15:04.950Z,4.10
2018-03-23T01:17:31.206Z,4.10
2018-03-23T01:19:57.470Z,4.10
2018-03-23T01:22:24.474Z,4.10
2018-03-23T01:24:50.694Z,4.10
2018-03-23T01:27:17.040Z,4.20
2018-03-23T01:29:43.322Z,4.20
2018-03-23T01:32:10.074Z,4.10
2018-03-23T01:34:36.368Z,4.10
2018-03-23T01:37:02.685Z,4.10
2018-03-23T01:39:28.919Z,4.10
2018-03-23T01:41:55.578Z,4.10
2018-03-23T01:44:22.691Z,4.10
2018-03-23T01:46:48.918Z,4.10
2018-03-23T01:49:15.295Z,4.20
2018-03-23T01:51:41.604Z,4.10
2018-03-23T01:54:08.596Z,4.10
2018-03-23T01:56:35.781Z,4.10
2018-03-23T01:59:02.071Z,4.10
2018-03-23T02:01:28.317Z,4.10
2018-03-23T02:03:54.650Z,4.10
2018-03-23T02:06:20.874Z,4.10
2018-03-23T02:08:47.122Z,4.10
2018-03-23T02:11:13.331Z,4.10
2018-03-23T02:13:39.667Z,4.20
2018-03-23T02:16:05.965Z,4.20
2018-03-23T02:18:32.173Z,4.20
2018-03-23T02:20:59.144Z,4.20
2018-03-23T02:23:25.418Z,4.10
2018-03-23T02:25:51.670Z,4.20
2018-03-23T02:28:17.926Z,4.20
2018-03-23T02:30:44.178Z,4.20
2018-03-23T02:33:10.512Z,4.20
2018-03-23T02:35:36.740Z,4.20
2018-03-23T02:38:03.440Z,4.20
2018-03-23T02:40:30.408Z,4.20
2018-03-23T02:42:57.416Z,4.20
2018-03-23T02:45:23.804Z,4.20
2018-03-23T02:47:50.100Z,4.20
2018-03-23T02:50:16.456Z,4.20
2018-03-23T02:52:42.887Z,4.20
2018-03-23T02:55:09.598Z,4.20
2018-03-23T02:57:35.828Z,4.20
2018-03-23T03:00:02.075Z,4.20
2018-03-23T03:02:28.333Z,4.20
2018-03-23T03:04:54.574Z,4.20
2018-03-23T03:07:21.673Z,4.20
2018-03-23T03:09:47.925Z,4.20
2018-03-23T03:12:14.297Z,4.20
2018-03-23T03:14:41.278Z,4.30
2018-03-23T03:17:07.493Z,4.20
2018-03-23T03:19:33.734Z,4.30
2018-03-23T03:21:59.970Z,4.20
2018-03-23T03:24:26.211Z,4.30
2018-03-23T03:26:52.475Z,4.30
2018-03-23T03:29:18.730Z,4.20
2018-03-23T03:31:44.942Z,4.30
2018-03-23T03:34:11.312Z,4.30
2018-03-23T03:36:37.577Z,4.30
2018-03-23T03:39:04.607Z,4.30
2018-03-23T03:41:30.835Z,4.30
2018-03-23T03:43:57.077Z,4.30
2018-03-23T03:46:23.331Z,4.30
2018-03-23T03:48:49.552Z,4.30
2018-03-23T03:51:15.766Z,4.30
2018-03-23T03:53:42.018Z,4.30
2018-03-23T03:56:08.277Z,4.30
2018-03-23T03:58:35.272Z,4.30
2018-03-23T04:01:01.495Z,4.30
2018-03-23T04:03:27.709Z,4.30
2018-03-23T04:05:54.250Z,4.30
2018-03-23T04:08:20.477Z,4.30
2018-03-23T04:10:46.685Z,4.30
2018-03-23T04:13:13.733Z,4.30
2018-03-23T04:15:40.687Z,4.30
2018-03-23T04:18:07.651Z,4.30
2018-03-23T04:20:33.994Z,4.30
2018-03-23T04:23:00.365Z,4.30
2018-03-23T04:25:26.569Z,4.30
2018-03-23T04:27:52.862Z,4.30
2018-03-23T04:30:19.394Z,4.30
2018-03-23T04:32:45.713Z,4.30
2018-03-23T04:35:12.714Z,4.30
2018-03-23T04:37:38.929Z,4.30
2018-03-23T04:40:05.155Z,4.30
2018-03-23T04:42:31.379Z,4.30
2018-03-23T04:44:57.630Z,4.30
2018-03-23T04:47:24.618Z,4.30
2018-03-23T04:49:50.979Z,4.30
2018-03-23T04:52:17.475Z,4.30
2018-03-23T04:54:43.719Z,4.30
2018-03-23T04:57:10.057Z,4.30
2018-03-23T04:59:36.334Z,4.30
2018-03-23T05:02:02.647Z,4.30
2018-03-23T05:04:28.910Z,4.30
2018-03-23T05:06:55.140Z,4.30
2018-03-23T05:09:21.379Z,4.30
2018-03-23T05:11:48.343Z,4.30
2018-03-23T05:14:15.578Z,4.40
2018-03-23T05:16:41.905Z,4.40
2018-03-23T05:19:08.163Z,4.40
2018-03-23T05:21:35.158Z,4.40
2018-03-23T05:24:02.184Z,4.40
2018-03-23T05:26:28.439Z,4.40
2018-03-23T05:28:54.687Z,4.40
2018-03-23T05:31:21.031Z,4.40
2018-03-23T05:33:48.012Z,4.40
2018-03-23T05:36:14.286Z,4.30
2018-03-23T05:38:40.695Z,4.40
2018-03-23T05:41:06.946Z,4.40
2018-03-23T05:43:33.310Z,4.40
2018-03-23T05:46:00.698Z,4.40
2018-03-23T05:48:26.976Z,4.40
2018-03-23T05:50:53.336Z,4.40
2018-03-23T05:53:19.658Z,4.40
2018-03-23T05:55:46.694Z,4.40
2018-03-23T05:58:13.048Z,4.40
2018-03-23T06:00:40.077Z,4.40
2018-03-23T06:03:06.410Z,4.40
2018-03-23T06:05:32.760Z,4.50
2018-03-23T06:07:59.248Z,4.50
2018-03-23T06:10:25.852Z,4.50
2018-03-23T06:12:52.101Z,4.50
2018-03-23T06:15:18.335Z,4.50
2018-03-23T06:17:44.554Z,4.50
2018-03-23T06:20:10.769Z,4.50
2018-03-23T06:22:37.066Z,4.50
2018-03-23T06:25:03.311Z,4.60
2018-03-23T06:27:30.270Z,4.60
2018-03-23T06:29:56.518Z,4.50
2018-03-23T06:32:22.786Z,4.60
2018-03-23T06:34:49.085Z,4.60
2018-03-23T06:37:15.367Z,4.60
2018-03-23T06:39:42.338Z,4.60
2018-03-23T06:42:08.572Z,4.60
2018-03-23T06:44:35.715Z,4.60
2018-03-23T06:47:02.681Z,4.60
2018-03-23T06:49:29.843Z,4.70
2018-03-23T06:51:56.169Z,4.70
2018-03-23T06:54:22.406Z,4.70
2018-03-23T06:56:48.632Z,4.70
2018-03-23T06:59:14.890Z,4.70
2018-03-23T07:01:41.120Z,4.80
2018-03-23T07:04:07.372Z,4.80
2018-03-23T07:06:33.682Z,4.80
2018-03-23T07:08:59.897Z,4.80
2018-03-23T07:11:26.182Z,4.80
2018-03-23T07:13:53.489Z,4.90
2018-03-23T07:16:20.192Z,4.90
2018-03-23T07:18:46.431Z,4.90
2018-03-23T07:21:12.677Z,5.00
2018-03-23T07:23:38.942Z,5.00
2018-03-23T07:26:05.172Z,5.00
2018-03-23T07:28:31.407Z,5.00
2018-03-23T07:30:57.657Z,5.10
2018-03-23T07:33:24.702Z,5.10
2018-03-23T07:35:52.135Z,5.10
2018-03-23T07:38:18.492Z,5.10
2018-03-23T07:40:45.600Z,5.20
2018-03-23T07:43:11.824Z,5.20
2018-03-23T07:45:38.135Z,5.20
2018-03-23T07:48:04.355Z,5.20
2018-03-23T07:50:30.718Z,5.30
2018-03-23T07:52:56.997Z,5.30
2018-03-23T07:55:23.953Z,5.30
2018-03-23T07:57:50.166Z,5.30
2018-03-23T08:00:17.140Z,5.40
2018-03-23T08:02:43.383Z,5.40
2018-03-23T08:05:09.919Z,5.40
2018-03-23T08:07:36.171Z,5.40
2018-03-23T08:10:02.478Z,5.40
2018-03-23T08:12:28.695Z,5.50
2018-03-23T08:14:55.150Z,5.50
2018-03-23T08:17:22.242Z,5.50
2018-03-23T08:19:48.482Z,5.50
2018-03-23T08:22:15.562Z,5.60
2018-03-23T08:24:41.846Z,5.50
2018-03-23T08:27:08.091Z,5.60
2018-03-23T08:29:35.041Z,5.60
2018-03-23T08:32:02.001Z,5.60
2018-03-23T08:34:28.269Z,5.60
2018-03-23T08:36:54.647Z,5.70
2018-03-23T08:39:21.978Z,5.70
2018-03-23T08:41:48.612Z,5.70
2018-03-23T08:44:14.785Z,5.70
2018-03-23T08:46:41.062Z,5.70
2018-03-23T08:49:07.299Z,5.70
2018-03-23T08:51:33.509Z,5.80
2018-03-23T08:54:00.449Z,5.80
2018-03-23T08:56:26.745Z,5.80
2018-03-23T08:58:52.967Z,5.80
2018-03-23T09:01:20.073Z,5.80
2018-03-23T09:03:46.284Z,5.80
2018-03-23T09:06:12.950Z,5.90
2018-03-23T09:08:39.276Z,5.90
2018-03-23T09:11:05.590Z,5.90
2018-03-23T09:13:31.831Z,5.90
2018-03-23T09:15:58.102Z,5.90
2018-03-23T09:18:25.050Z,6.00
2018-03-23T09:20:52.202Z,6.00
2018-03-23T09:23:19.171Z,6.00
2018-03-23T09:25:45.389Z,6.00
2018-03-23T09:28:14.561Z,6.00
2018-03-23T09:30:41.549Z,6.10
2018-03-23T09:33:07.888Z,6.10
2018-03-23T09:35:34.184Z,6.10
2018-03-23T09:38:01.193Z,6.20
2018-03-23T09:40:27.422Z,6.20
2018-03-23T09:42:54.642Z,6.20
2018-03-23T09:45:20.997Z,6.20
2018-03-23T09:47:47.203Z,6.20
2018-03-23T09:50:13.455Z,6.30
2018-03-23T09:52:39.667Z,6.30
2018-03-23T09:55:06.050Z,6.30
2018-03-23T09:57:32.997Z,6.30
2018-03-23T10:00:00.030Z,6.30
2018-03-23T10:02:26.257Z,6.30
2018-03-23T10:04:52.498Z,6.40
2018-03-23T10:07:19.524Z,6.40
2018-03-23T10:09:45.771Z,6.40
2018-03-23T10:12:13.050Z,6.40
2018-03-23T10:14:39.328Z,6.40
2018-03-23T10:17:05.684Z,6.50
2018-03-23T10:19:31.899Z,6.50
2018-03-23T10:21:58.182Z,6.50
2018-03-23T10:24:24.479Z,6.50
2018-03-23T10:26:51.644Z,6.50
2018-03-23T10:29:18.593Z,6.50
2018-03-23T10:31:55.676Z,6.50
2018-03-23T10:34:22.795Z,6.50
2018-03-23T10:36:49.201Z,6.50
2018-03-23T10:39:15.548Z,6.60
2018-03-23T10:41:41.788Z,6.60
2018-03-23T10:44:08.130Z,6.60
2018-03-23T10:46:34.353Z,6.60
2018-03-23T10:49:00.582Z,6.70
2018-03-23T10:51:26.845Z,6.70
2018-03-23T10:53:53.053Z,6.70
2018-03-23T10:56:20.394Z,6.70
2018-03-23T10:58:46.703Z,6.70
2018-03-23T11:01:19.135Z,6.70
2018-03-23T11:03:45.369Z,6.70
2018-03-23T11:06:11.615Z,6.80
2018-03-23T11:08:37.844Z,6.80
2018-03-23T11:11:04.040Z,6.90
2018-03-23T11:13:31.111Z,7.00
2018-03-23T11:15:57.474Z,6.90
2018-03-23T11:18:23.772Z,6.90
2018-03-23T11:20:50.076Z,7.00
2018-03-23T11:23:17.202Z,6.90
2018-03-23T11:25:43.439Z,6.90
2018-03-23T11:28:09.774Z,7.00
2018-03-23T11:30:36.038Z,7.00
2018-03-23T11:33:02.394Z,7.00
2018-03-23T11:35:28.666Z,7.10
2018-03-23T11:37:54.913Z,7.10
2018-03-23T11:40:21.874Z,7.10
2018-03-23T11:42:48.279Z,7.10
2018-03-23T11:45:15.111Z,7.10
2018-03-23T11:47:41.407Z,7.10
2018-03-23T11:50:07.653Z,7.20
2018-03-23T11:52:33.902Z,7.20
2018-03-23T11:55:00.181Z,7.20
2018-03-23T11:57:26.393Z,7.20
2018-03-23T11:59:52.648Z,7.20
2018-03-23T12:02:18.871Z,7.30
2018-03-23T12:04:45.100Z,7.30
2018-03-23T12:07:12.483Z,7.30
2018-03-23T12:09:38.892Z,7.30
2018-03-23T12:12:05.156Z,7.30
2018-03-23T12:14:31.474Z,7.20
2018-03-23T12:16:57.738Z,7.30
2018-03-23T12:19:24.714Z,7.30
2018-03-23T12:21:51.046Z,7.20
2018-03-23T12:24:17.347Z,7.30
2018-03-23T12:26:44.643Z,7.30
2018-03-23T12:29:10.865Z,7.30
2018-03-23T12:31:37.170Z,7.30
2018-03-23T12:34:03.481Z,7.30
2018-03-23T12:36:30.587Z,7.40
2018-03-23T12:38:56.905Z,7.40
2018-03-23T12:41:23.166Z,7.40
2018-03-23T12:43:49.576Z,7.40
2018-03-23T12:46:15.831Z,7.40
2018-03-23T12:48:42.278Z,7.40
2018-03-23T12:51:08.490Z,7.30
2018-03-23T12:53:34.762Z,7.40
2018-03-23T12:56:01.193Z,7.40
2018-03-23T12:58:28.200Z,7.40
2018-03-23T13:00:54.442Z,7.30
2018-03-23T13:03:20.661Z,7.30
2018-03-23T13:05:46.886Z,7.30
2018-03-23T13:08:13.148Z,7.30
2018-03-23T13:10:40.212Z,7.30
2018-03-23T13:13:06.431Z,7.30
2018-03-23T13:15:33.475Z,7.30
2018-03-23T13:18:00.488Z,7.30
2018-03-23T13:20:26.756Z,7.40
2018-03-23T13:22:53.887Z,7.40
2018-03-23T13:25:20.161Z,7.40
2018-03-23T13:27:46.372Z,7.40
2018-03-23T13:30:13.355Z,7.40
2018-03-23T13:32:39.745Z,7.40
2018-03-23T13:35:06.013Z,7.40
2018-03-23T13:37:32.448Z,7.40
2018-03-23T13:39:58.692Z,7.40
2018-03-23T13:42:24.938Z,7.40
2018-03-23T13:44:51.166Z,7.40
2018-03-23T13:47:17.394Z,7.40
2018-03-23T13:49:43.615Z,7.40
2018-03-23T13:52:10.228Z,7.40
2018-03-23T13:54:36.510Z,7.40
2018-03-23T13:57:02.791Z,7.40
2018-03-23T14:02:26.693Z,7.50
2018-03-23T14:04:53.009Z,7.50
2018-03-23T14:07:19.247Z,7.40
2018-03-23T14:09:45.522Z,7.40
2018-03-23T14:12:11.797Z,7.40
2018-03-23T14:14:38.101Z,7.50
2018-03-23T14:17:05.076Z,7.40
2018-03-23T14:19:31.453Z,7.40
2018-03-23T14:21:57.679Z,7.40
2018-03-23T14:24:23.989Z,7.40
2018-03-23T14:26:50.214Z,7.40
2018-03-23T14:29:16.444Z,7.40
2018-03-23T14:31:42.851Z,7.40
2018-03-23T14:34:09.122Z,7.40
2018-03-23T14:36:35.354Z,7.40
2018-03-23T14:39:01.654Z,7.40
2018-03-23T14:41:27.893Z,7.40
2018-03-23T14:43:54.211Z,7.40
2018-03-23T14:46:20.417Z,7.40
2018-03-23T14:48:47.427Z,7.40
2018-03-23T14:51:13.798Z,7.40
2018-03-23T14:53:39.996Z,7.40
2018-03-23T14:56:06.638Z,7.40
2018-03-23T14:58:39.041Z,7.40
2018-03-23T15:01:05.255Z,7.40
2018-03-23T15:03:32.238Z,7.40
2018-03-23T15:05:58.548Z,7.40
2018-03-23T15:08:25.635Z,7.40
2018-03-23T15:10:51.928Z,7.40
2018-03-23T15:13:18.199Z,7.40
2018-03-23T15:15:44.531Z,7.40
2018-03-23T15:18:10.766Z,7.40
2018-03-23T15:20:37.062Z,7.40
2018-03-23T15:23:03.666Z,7.40
2018-03-23T15:25:30.678Z,7.40
2018-03-23T15:27:56.933Z,7.40
2018-03-23T15:30:23.163Z,7.40
2018-03-23T15:32:49.454Z,7.40
2018-03-23T15:35:15.716Z,7.40
2018-03-23T15:37:41.919Z,7.40
2018-03-23T15:40:08.242Z,7.40
2018-03-23T15:42:34.581Z,7.30
2018-03-23T15:45:00.882Z,7.40
2018-03-23T15:47:27.110Z,7.40
2018-03-23T15:49:53.415Z,7.40
2018-03-23T15:52:20.365Z,7.40
2018-03-23T15:54:47.337Z,7.40
2018-03-23T15:57:13.563Z,7.40
2018-03-23T15:59:39.775Z,7.30
2018-03-23T16:02:06.872Z,7.40
2018-03-23T16:04:33.820Z,7.40
2018-03-23T16:07:00.054Z,7.30
2018-03-23T16:09:26.274Z,7.30
2018-03-23T16:11:52.538Z,7.30
2018-03-23T16:14:18.746Z,7.30
2018-03-23T16:16:45.015Z,7.30
2018-03-23T16:19:12.003Z,7.30
2018-03-23T16:21:38.229Z,7.30
2018-03-23T16:24:04.573Z,7.30
2018-03-23T16:26:30.863Z,7.30
2018-03-23T16:28:57.319Z,7.30
2018-03-23T16:31:23.615Z,7.30
2018-03-23T16:33:50.802Z,7.30
2018-03-23T16:36:17.023Z,7.30
2018-03-23T16:38:43.245Z,7.30
2018-03-23T16:41:09.769Z,7.30
2018-03-23T16:43:36.948Z,7.30
2018-03-23T16:46:03.233Z,7.20
2018-03-23T16:48:30.199Z,7.20
2018-03-23T16:50:57.386Z,7.20
2018-03-23T16:53:23.611Z,7.20
2018-03-23T16:55:49.854Z,7.20
2018-03-23T16:58:16.082Z,7.20
2018-03-23T17:00:42.782Z,7.20
2018-03-23T17:03:09.036Z,7.20
2018-03-23T17:05:35.474Z,7.10
2018-03-23T17:08:01.703Z,7.10
2018-03-23T17:10:27.981Z,7.10
2018-03-23T17:12:54.982Z,7.10
2018-03-23T17:15:21.248Z,7.10
2018-03-23T17:17:48.249Z,7.10
2018-03-23T17:20:14.520Z,7.10
2018-03-23T17:22:40.719Z,7.10
2018-03-23T17:25:06.986Z,7.00
2018-03-23T17:27:33.264Z,7.00
2018-03-23T17:29:59.742Z,7.00
2018-03-23T17:32:26.013Z,7.00
2018-03-23T17:34:52.291Z,7.00
2018-03-23T17:37:18.516Z,7.00
2018-03-23T17:39:44.790Z,7.00
2018-03-23T17:42:11.271Z,7.00
2018-03-23T17:44:37.529Z,7.00
2018-03-23T17:47:03.769Z,7.00
2018-03-23T17:49:31.110Z,7.00
2018-03-23T17:51:57.468Z,6.90
2018-03-23T17:54:24.462Z,6.90
2018-03-23T17:56:50.844Z,6.90
2018-03-23T17:59:17.811Z,6.90
2018-03-23T18:01:44.300Z,6.80
2018-03-23T18:04:10.910Z,6.90
2018-03-23T18:06:37.207Z,6.80
2018-03-23T18:09:03.479Z,6.80
2018-03-23T18:11:29.712Z,6.80
2018-03-23T18:13:55.957Z,6.80
2018-03-23T18:16:22.190Z,6.80
2018-03-23T18:18:48.411Z,6.80
2018-03-23T18:21:14.722Z,6.80
2018-03-23T18:23:40.965Z,6.80
2018-03-23T18:26:07.204Z,6.80
2018-03-23T18:28:33.413Z,6.80
2018-03-23T18:30:59.670Z,6.80
2018-03-23T18:33:26.784Z,6.80
2018-03-23T18:35:53.041Z,6.70
2018-03-23T18:38:19.735Z,6.70
2018-03-23T18:40:45.997Z,6.70
2018-03-23T18:43:12.278Z,6.70
2018-03-23T18:45:38.628Z,6.70
2018-03-23T18:48:04.849Z,6.70
2018-03-23T18:50:32.423Z,6.70
2018-03-23T18:52:59.214Z,6.70
2018-03-23T18:55:25.413Z,6.70
2018-03-23T18:57:51.632Z,6.60
2018-03-23T19:00:17.871Z,6.60
2018-03-23T19:02:44.132Z,6.70
2018-03-23T19:05:10.710Z,6.60
2018-03-23T19:07:36.931Z,6.60
2018-03-23T19:10:03.187Z,6.60
2018-03-23T19:12:30.152Z,6.60
2018-03-23T19:14:56.455Z,6.60
2018-03-23T19:17:22.787Z,6.50
2018-03-23T19:19:49.021Z,6.50
2018-03-23T19:22:15.351Z,6.50
2018-03-23T19:24:41.559Z,6.50
2018-03-23T19:27:08.021Z,6.40
2018-03-23T19:29:34.238Z,6.40
2018-03-23T19:32:00.587Z,6.40
2018-03-23T19:34:26.825Z,6.40
2018-03-23T19:36:53.849Z,6.40
2018-03-23T19:39:20.124Z,6.40
2018-03-23T19:41:46.864Z,6.40
2018-03-23T19:44:13.182Z,6.40
2018-03-23T19:46:39.421Z,6.30
2018-03-23T19:49:06.534Z,6.30
2018-03-23T19:51:32.825Z,6.30
2018-03-23T19:53:59.778Z,6.30
2018-03-23T19:56:26.014Z,6.30
2018-03-23T19:58:52.242Z,6.30
2018-03-23T20:01:18.681Z,6.30
2018-03-23T20:03:44.918Z,6.30
2018-03-23T20:06:11.151Z,6.30
2018-03-23T20:08:37.375Z,6.30
2018-03-23T20:11:03.594Z,6.20
2018-03-23T20:13:29.850Z,6.30
2018-03-23T20:15:56.102Z,6.30
2018-03-23T20:18:22.345Z,6.20
2018-03-23T20:20:54.570Z,6.20
2018-03-23T20:23:20.922Z,6.20
2018-03-23T20:25:47.147Z,6.20
2018-03-23T20:28:19.442Z,6.20
2018-03-23T20:30:45.990Z,6.20
2018-03-23T20:33:12.941Z,6.20
2018-03-23T20:35:39.992Z,6.20
2018-03-23T20:38:07.331Z,6.20
2018-03-23T20:40:33.547Z,6.10
2018-03-23T20:42:59.980Z,6.10
2018-03-23T20:45:26.218Z,6.10
2018-03-23T20:47:52.520Z,6.10
2018-03-23T20:50:18.770Z,6.10
2018-03-23T20:52:45.046Z,6.10
2018-03-23T20:55:11.413Z,6.10
2018-03-23T20:57:37.710Z,6.00
2018-03-23T21:00:03.999Z,6.00
2018-03-23T21:02:30.238Z,6.00
2018-03-23T21:04:56.456Z,6.00
2018-03-23T21:07:22.699Z,6.00
2018-03-23T21:09:48.902Z,6.00
2018-03-23T21:12:15.130Z,5.90
2018-03-23T21:14:41.382Z,5.90
2018-03-23T21:17:07.601Z,5.90
2018-03-23T21:19:33.856Z,5.90
2018-03-23T21:22:00.827Z,5.90
2018-03-23T21:24:27.047Z,5.80
2018-03-23T21:26:53.251Z,5.80
2018-03-23T21:29:20.239Z,5.80
2018-03-23T21:31:46.562Z,5.80
2018-03-23T21:34:12.883Z,5.80
2018-03-23T21:36:39.109Z,5.80
2018-03-23T21:39:05.399Z,5.80
2018-03-23T21:41:31.694Z,5.80
2018-03-23T21:43:57.948Z,5.80
2018-03-23T21:46:24.919Z,5.70
2018-03-23T21:48:51.241Z,5.80
2018-03-23T21:51:17.461Z,5.70
2018-03-23T21:53:44.115Z,5.70
2018-03-23T21:56:10.712Z,5.70
2018-03-23T21:58:36.922Z,5.70
2018-03-23T22:01:03.302Z,5.70
2018-03-23T22:03:29.560Z,5.70
2018-03-23T22:05:56.702Z,5.70
2018-03-23T22:08:23.717Z,5.70
2018-03-23T22:10:49.933Z,5.70
2018-03-23T22:13:16.223Z,5.70
2018-03-23T22:15:42.446Z,5.70
2018-03-23T22:18:09.461Z,5.60
2018-03-23T22:20:35.720Z,5.60
2018-03-23T22:23:02.693Z,5.60
2018-03-23T22:25:28.934Z,5.60
2018-03-23T22:27:55.140Z,5.60
2018-03-23T22:30:21.418Z,5.60
2018-03-23T22:32:47.748Z,5.60
2018-03-23T22:35:13.952Z,5.60
2018-03-23T22:37:40.226Z,5.60
2018-03-23T22:40:06.862Z,5.60
2018-03-23T22:42:33.143Z,5.60
2018-03-23T22:44:59.382Z,5.50
2018-03-23T22:47:25.602Z,5.50
2018-03-23T22:49:51.815Z,5.60
2018-03-23T22:52:18.089Z,5.50
2018-03-23T22:54:44.299Z,5.50
2018-03-23T22:57:10.769Z,5.50
2018-03-23T22:59:37.007Z,5.50
2018-03-23T23:02:03.251Z,5.50
2018-03-23T23:04:30.300Z,5.50
2018-03-23T23:06:57.283Z,5.50
2018-03-23T23:09:23.530Z,5.50
2018-03-23T23:11:49.750Z,5.50
2018-03-23T23:14:15.966Z,5.50
2018-03-23T23:16:42.195Z,5.50
2018-03-23T23:19:08.439Z,5.40
2018-03-23T23:21:34.686Z,5.50
2018-03-23T23:24:00.938Z,5.40
2018-03-23T23:26:28.006Z,5.40
2018-03-23T23:28:54.281Z,5.40
2018-03-23T23:31:20.501Z,5.40
2018-03-23T23:33:46.710Z,5.40
2018-03-23T23:36:13.044Z,5.40
2018-03-23T23:38:39.297Z,5.40
2018-03-23T23:41:05.590Z,5.40
2018-03-23T23:43:31.801Z,5.40
2018-03-23T23:45:58.046Z,5.30
2018-03-23T23:48:24.262Z,5.30
2018-03-23T23:50:51.313Z,5.30
2018-03-23T23:53:18.362Z,5.30
2018-03-23T23:55:45.305Z,5.30
2018-03-23T23:58:12.251Z,5.30
